Terminal Aerodrome Forecast
Issued by NWS Melbourne, FL

Home | Current Version | Previous Version | Text Only | Print | Product List | Glossary On
Versions: 1 2 3 4 5 6 7 8 9 10 11 12 13 14 15 16 17
000
FTUS42 KMLB 071131
TAFVRB
TAF
KVRB 071131Z 0712/0812 31005KT 6SM BR SCT015
      TEMPO 0712/0713 5SM BR BKN015
     FM071400 31005KT P6SM FEW020 FEW250
     FM072100 02006KT P6SM SCT250
     FM080000 VRB03KT P6SM BKN250=

USA.gov is the U.S. government's official web portal to all federal, state and local government web resources and services.